Time;durP1;ratioP1;P1;durP2;ratioP2;P2;SDS_P1;SDS_P2;PMS_P1;PMS_P2;Temp;Humidity;BMP_temperature;BMP_pressure;BME280_temperature;BME280_humidity;BME280_pressure;Samples;Min_cycle;Max_cycle;Signal;HPM_P1;HPM_P2
2022/04/23 00:01:49;;;;;;;17.63;15.93;;;11.60;99.90;;;;;;4937039;29;20031;-77
2022/04/23 00:04:15;;;;;;;15.95;14.45;;;11.40;99.90;;;;;;4956810;28;20035;-78
2022/04/23 00:06:43;;;;;;;15.60;13.88;;;11.40;99.90;;;;;;4956274;28;20041;-77
2022/04/23 00:09:08;;;;;;;17.00;14.88;;;11.30;99.90;;;;;;4940855;28;20026;-78
2022/04/23 00:11:34;;;;;;;16.10;14.52;;;11.30;99.90;;;;;;4965417;28;20058;-77
2022/04/23 00:14:00;;;;;;;15.48;13.88;;;11.30;99.90;;;;;;4953923;28;20027;-76
2022/04/23 00:16:26;;;;;;;17.67;14.35;;;11.40;99.90;;;;;;4953828;28;20024;-79
2022/04/23 00:18:52;;;;;;;13.90;12.57;;;11.50;99.90;;;;;;4929949;28;20121;-79
2022/04/23 00:21:20;;;;;;;15.32;13.93;;;11.50;99.90;;;;;;4936725;28;20034;-79
2022/04/23 00:23:48;;;;;;;15.30;13.73;;;11.60;99.90;;;;;;4937848;28;20027;-81
2022/04/23 00:26:14;;;;;;;14.88;12.80;;;11.60;99.90;;;;;;4960479;28;20109;-81
2022/04/23 00:28:39;;;;;;;14.05;12.75;;;11.70;99.90;;;;;;4945287;29;20059;-81
2022/04/23 00:31:05;;;;;;;15.95;13.10;;;11.70;99.90;;;;;;4938845;28;20032;-79
2022/04/23 00:33:37;;;;;;;15.75;13.02;;;11.70;99.90;;;;;;4961440;28;20041;-78
2022/04/23 00:36:08;;;;;;;16.23;13.30;;;11.70;99.90;;;;;;4941710;28;20070;-79
2022/04/23 00:38:34;;;;;;;12.40;11.20;;;11.70;99.90;;;;;;4960117;28;20101;-80
2022/04/23 00:41:00;;;;;;;12.70;11.50;;;11.70;99.90;;;;;;4939375;28;20078;-80
2022/04/23 00:43:27;;;;;;;13.18;11.13;;;11.70;99.90;;;;;;4955161;28;20410;-80
2022/04/23 00:45:53;;;;;;;12.43;11.32;;;11.80;99.90;;;;;;4955837;28;20031;-80
2022/04/23 00:48:22;;;;;;;12.80;11.52;;;11.70;99.90;;;;;;4940870;28;20038;-81
2022/04/23 00:50:57;;;;;;;13.45;12.15;;;11.60;99.90;;;;;;4938801;29;20034;-79
2022/04/23 00:53:24;;;;;;;12.90;11.60;;;11.60;99.90;;;;;;4955966;29;20055;-81
2022/04/23 00:55:52;;;;;;;14.48;11.23;;;11.60;99.90;;;;;;4942055;28;20026;-79
2022/04/23 00:58:19;;;;;;;12.35;11.15;;;11.60;99.90;;;;;;4951569;29;20027;-80
2022/04/23 01:00:44;;;;;;;10.98;9.98;;;11.50;99.90;;;;;;4937294;29;20530;-81
2022/04/23 01:03:13;;;;;;;12.73;11.43;;;11.50;99.90;;;;;;4951883;28;20035;-78
2022/04/23 01:05:46;;;;;;;11.25;10.30;;;11.60;99.90;;;;;;4946545;28;20023;-79
2022/04/23 01:08:18;;;;;;;12.13;9.98;;;11.60;99.90;;;;;;4950204;28;20058;-77
2022/04/23 01:10:44;;;;;;;10.95;9.95;;;11.50;99.90;;;;;;4952695;28;20066;-79
2022/04/23 01:13:11;;;;;;;12.02;10.52;;;11.50;99.90;;;;;;4958889;28;20031;-78
2022/04/23 01:15:37;;;;;;;11.68;9.70;;;11.50;99.90;;;;;;4942647;29;20030;-78
2022/04/23 01:18:03;;;;;;;10.23;9.13;;;11.50;99.90;;;;;;4953152;28;20035;-78
2022/04/23 01:20:29;;;;;;;11.38;9.77;;;11.50;99.90;;;;;;4943537;28;20537;-77
2022/04/23 01:22:54;;;;;;;11.13;10.02;;;11.50;99.90;;;;;;4955145;29;20039;-78
2022/04/23 01:25:22;;;;;;;10.60;9.65;;;11.40;99.90;;;;;;4946826;29;20024;-78
2022/04/23 01:27:50;;;;;;;10.50;9.50;;;11.40;99.90;;;;;;4955884;29;20030;-78
2022/04/23 01:30:16;;;;;;;11.45;9.57;;;11.40;99.90;;;;;;4947800;28;20029;-79
2022/04/23 01:32:42;;;;;;;10.90;9.52;;;11.40;99.90;;;;;;4947293;28;20023;-77
2022/04/23 01:35:08;;;;;;;12.02;9.82;;;11.30;99.90;;;;;;4954597;29;20027;-78
2022/04/23 01:37:34;;;;;;;10.98;9.88;;;11.30;99.90;;;;;;4947773;29;20024;-78
2022/04/23 01:40:00;;;;;;;10.25;9.32;;;11.20;99.90;;;;;;4956912;28;20027;-78
2022/04/23 01:42:25;;;;;;;11.40;10.30;;;11.10;99.90;;;;;;4956030;28;20516;-78
2022/04/23 01:44:52;;;;;;;11.45;10.32;;;11.00;99.90;;;;;;4952291;28;20027;-77
2022/04/23 01:47:18;;;;;;;11.18;10.18;;;10.90;99.90;;;;;;4938043;29;20031;-77
2022/04/23 01:49:44;;;;;;;12.18;10.90;;;11.00;99.90;;;;;;4951535;29;20132;-78
2022/04/23 01:52:11;;;;;;;11.73;9.50;;;11.00;99.90;;;;;;4952737;28;20046;-78
2022/04/23 01:54:37;;;;;;;11.55;10.15;;;10.90;99.90;;;;;;4950107;28;20374;-77
2022/04/23 01:57:03;;;;;;;14.13;10.52;;;10.90;99.90;;;;;;4955219;28;20096;-78
2022/04/23 01:59:30;;;;;;;11.27;10.27;;;10.90;99.90;;;;;;4944820;29;20122;-78
2022/04/23 02:01:56;;;;;;;13.57;11.13;;;10.80;99.90;;;;;;4933885;28;20067;-77
2022/04/23 02:04:22;;;;;;;18.75;10.73;;;10.80;99.90;;;;;;4959467;28;20545;-78
2022/04/23 02:06:47;;;;;;;11.70;10.60;;;10.80;99.90;;;;;;4939615;28;20030;-78
2022/04/23 02:09:13;;;;;;;12.45;11.23;;;10.70;99.90;;;;;;4935886;28;20062;-78
2022/04/23 02:11:39;;;;;;;11.45;10.45;;;10.70;99.90;;;;;;4955601;28;20053;-77
2022/04/23 02:14:05;;;;;;;13.15;11.20;;;10.70;99.90;;;;;;4941190;28;20486;-76
2022/04/23 02:16:31;;;;;;;10.80;9.80;;;10.60;99.90;;;;;;4953354;28;21502;-78
2022/04/23 02:18:57;;;;;;;12.45;11.30;;;10.60;99.90;;;;;;4932662;29;20414;-77
2022/04/23 02:21:27;;;;;;;13.52;12.23;;;10.50;99.90;;;;;;4950667;28;20027;-77
2022/04/23 02:23:53;;;;;;;12.32;11.10;;;10.50;99.90;;;;;;4959436;28;20642;-78
2022/04/23 02:26:20;;;;;;;12.80;11.63;;;10.50;99.90;;;;;;4959649;28;20028;-77
2022/04/23 02:28:47;;;;;;;13.63;12.43;;;10.40;99.90;;;;;;4935686;29;20024;-79
2022/04/23 02:31:13;;;;;;;13.52;12.13;;;10.30;99.90;;;;;;4934767;28;20049;-77
2022/04/23 02:33:38;;;;;;;14.40;13.10;;;10.40;99.90;;;;;;4953913;28;20038;-78
2022/04/23 02:36:06;;;;;;;14.65;13.07;;;10.30;99.90;;;;;;4954869;28;20401;-79
2022/04/23 02:38:32;;;;;;;15.13;13.60;;;10.20;99.90;;;;;;4938377;28;20038;-77
2022/04/23 02:40:58;;;;;;;14.68;13.40;;;10.20;99.90;;;;;;4955655;28;20039;-78
2022/04/23 02:43:23;;;;;;;14.55;13.25;;;10.10;99.90;;;;;;4954712;28;20508;-77
2022/04/23 02:45:49;;;;;;;15.60;14.10;;;10.20;99.90;;;;;;4935954;28;20031;-78
2022/04/23 02:48:15;;;;;;;14.65;13.25;;;10.20;99.90;;;;;;4958809;28;20122;-78
2022/04/23 02:50:41;;;;;;;13.93;12.73;;;10.10;99.90;;;;;;4956573;28;20031;-77
2022/04/23 02:53:08;;;;;;;14.60;13.30;;;10.10;99.90;;;;;;4951260;28;20027;-77
2022/04/23 02:55:35;;;;;;;14.73;13.25;;;10.10;99.90;;;;;;4953252;28;20054;-79
2022/04/23 02:58:01;;;;;;;14.95;13.65;;;10.00;99.90;;;;;;4932280;28;20551;-78
2022/04/23 03:00:27;;;;;;;15.27;13.98;;;10.00;99.90;;;;;;4959271;28;20166;-79
2022/04/23 03:02:52;;;;;;;15.65;14.18;;;10.10;99.90;;;;;;4940659;28;20125;-78
2022/04/23 03:05:18;;;;;;;14.23;12.93;;;10.10;99.90;;;;;;4935563;29;20034;-77
2022/04/23 03:07:45;;;;;;;15.10;13.57;;;10.10;99.90;;;;;;4940851;28;20031;-77
2022/04/23 03:10:12;;;;;;;15.02;13.63;;;10.00;99.90;;;;;;4936647;29;20405;-78
2022/04/23 03:12:39;;;;;;;18.63;14.07;;;9.80;99.90;;;;;;4951492;28;20496;-78
2022/04/23 03:15:06;;;;;;;15.38;13.80;;;9.70;99.90;;;;;;4960171;28;20045;-79
2022/04/23 03:17:32;;;;;;;16.52;14.18;;;9.50;99.90;;;;;;4951672;28;20066;-78
2022/04/23 03:19:58;;;;;;;15.90;14.55;;;9.30;99.90;;;;;;4957754;28;20045;-78
2022/04/23 03:22:23;;;;;;;21.63;16.25;;;9.20;99.90;;;;;;4939987;29;20023;-79
2022/04/23 03:24:49;;;;;;;16.15;14.45;;;9.10;99.90;;;;;;4955897;28;20037;-77
2022/04/23 03:27:15;;;;;;;15.38;13.50;;;9.20;99.90;;;;;;4954767;28;20030;-78
2022/04/23 03:29:41;;;;;;;14.68;13.30;;;9.30;99.90;;;;;;4953699;28;20015;-78
2022/04/23 03:32:07;;;;;;;14.38;13.07;;;9.50;99.90;;;;;;4950885;28;20039;-79
2022/04/23 03:34:32;;;;;;;13.95;12.65;;;9.60;99.90;;;;;;4957491;28;20041;-79
2022/04/23 03:36:58;;;;;;;14.02;12.80;;;9.60;99.90;;;;;;4957013;28;20098;-79
2022/04/23 03:39:23;;;;;;;14.63;13.20;;;9.60;99.90;;;;;;4954925;28;20023;-78
2022/04/23 03:41:49;;;;;;;14.30;13.07;;;9.60;99.90;;;;;;4959804;28;20057;-80
2022/04/23 03:44:15;;;;;;;14.55;13.15;;;9.50;99.90;;;;;;4943439;28;20027;-78
2022/04/23 03:46:40;;;;;;;13.75;12.50;;;9.50;99.90;;;;;;4943582;28;20138;-78
2022/04/23 03:49:07;;;;;;;14.02;12.73;;;9.50;99.90;;;;;;4954909;28;20104;-78
2022/04/23 03:51:34;;;;;;;13.85;12.65;;;9.50;99.90;;;;;;4947559;28;20094;-79
2022/04/23 03:54:00;;;;;;;12.50;11.30;;;9.50;99.90;;;;;;4950281;29;20102;-78
2022/04/23 03:56:26;;;;;;;13.73;12.50;;;9.50;99.90;;;;;;4940131;29;20029;-77
2022/04/23 03:58:52;;;;;;;12.80;11.68;;;9.50;99.90;;;;;;4942992;29;20126;-78
2022/04/23 04:01:17;;;;;;;12.90;11.60;;;9.50;99.90;;;;;;4959065;28;20062;-78
2022/04/23 04:03:43;;;;;;;12.30;11.00;;;9.40;99.90;;;;;;4956171;28;20027;-80
2022/04/23 04:06:10;;;;;;;12.38;11.27;;;9.30;99.90;;;;;;4955156;28;20531;-78
2022/04/23 04:08:35;;;;;;;12.07;10.95;;;9.30;99.90;;;;;;4944111;29;20486;-77
2022/04/23 04:11:01;;;;;;;11.60;10.57;;;9.20;99.90;;;;;;4955382;28;20028;-78
2022/04/23 04:13:27;;;;;;;10.98;9.98;;;9.30;99.90;;;;;;4957973;28;20049;-77
2022/04/23 04:15:52;;;;;;;11.40;10.40;;;9.20;99.90;;;;;;4946887;28;20034;-78
2022/04/23 04:18:19;;;;;;;11.55;10.50;;;9.10;99.90;;;;;;4952572;28;20414;-79
2022/04/23 04:20:48;;;;;;;10.57;9.57;;;9.20;99.90;;;;;;4938741;29;20110;-78
2022/04/23 04:23:14;;;;;;;12.15;10.95;;;9.20;99.90;;;;;;4959428;28;20110;-78
2022/04/23 04:25:40;;;;;;;10.90;9.90;;;9.20;99.90;;;;;;4958904;28;20023;-78
2022/04/23 04:28:06;;;;;;;12.00;10.90;;;9.20;99.90;;;;;;4939533;28;20134;-78
2022/04/23 04:31:46;;;;;;;12.07;10.88;;;9.20;99.90;;;;;;4952336;28;20433;-78
2022/04/23 04:33:17;;;;;;;12.30;11.10;;;9.20;99.90;;;;;;4958371;28;20038;-77
2022/04/23 04:35:42;;;;;;;11.77;10.68;;;9.20;99.90;;;;;;4943998;29;20023;-78
2022/04/23 04:38:08;;;;;;;12.30;10.80;;;9.20;99.90;;;;;;4954804;28;20178;-79
2022/04/23 04:40:34;;;;;;;11.30;10.30;;;9.30;99.90;;;;;;4956915;28;20032;-78
2022/04/23 04:42:59;;;;;;;12.95;11.77;;;9.30;99.90;;;;;;4951656;28;20027;-79
2022/04/23 04:45:25;;;;;;;11.68;10.57;;;9.40;99.90;;;;;;4939699;28;20049;-77
2022/04/23 04:47:50;;;;;;;12.15;11.05;;;9.40;99.90;;;;;;4957113;28;20027;-78
2022/04/23 04:50:17;;;;;;;12.27;11.15;;;9.50;99.90;;;;;;4938679;29;20028;-78
2022/04/23 04:52:43;;;;;;;11.35;10.25;;;9.50;99.90;;;;;;4942481;28;20490;-79
2022/04/23 04:55:09;;;;;;;12.20;11.10;;;9.60;99.90;;;;;;4954397;29;20102;-77
2022/04/23 04:57:35;;;;;;;12.68;11.43;;;9.70;99.90;;;;;;4955831;28;20035;-79
2022/04/23 05:00:00;;;;;;;11.52;10.48;;;9.70;99.90;;;;;;4956756;28;20396;-78
2022/04/23 05:02:26;;;;;;;11.43;10.32;;;9.70;99.90;;;;;;4955611;29;20035;-78
2022/04/23 05:04:51;;;;;;;13.80;10.38;;;9.80;99.90;;;;;;4955300;28;20048;-79
2022/04/23 05:07:17;;;;;;;11.32;10.32;;;9.80;99.90;;;;;;4934155;28;20049;-78
2022/04/23 05:09:43;;;;;;;12.95;11.75;;;9.80;99.90;;;;;;4938355;28;20030;-78
2022/04/23 05:12:09;;;;;;;12.48;11.38;;;9.90;99.90;;;;;;4954870;28;20039;-79
2022/04/23 05:14:34;;;;;;;11.73;10.63;;;10.00;99.90;;;;;;4937219;29;20035;-79
2022/04/23 05:17:00;;;;;;;11.85;10.80;;;10.00;99.90;;;;;;4953388;28;20039;-79
2022/04/23 05:19:25;;;;;;;11.77;10.57;;;10.10;99.90;;;;;;4955302;28;20034;-79
2022/04/23 05:21:51;;;;;;;11.88;10.77;;;10.10;99.90;;;;;;4959330;28;20046;-78
2022/04/23 05:24:16;;;;;;;12.20;11.07;;;10.10;99.90;;;;;;4952552;28;20067;-78
2022/04/23 05:26:42;;;;;;;12.38;11.07;;;10.20;99.90;;;;;;4956378;28;20062;-78
2022/04/23 05:29:07;;;;;;;11.07;10.07;;;10.20;99.90;;;;;;4951744;28;20079;-79
2022/04/23 05:31:33;;;;;;;12.13;11.02;;;10.20;99.90;;;;;;4961152;28;20545;-79
2022/04/23 05:33:58;;;;;;;11.82;10.63;;;10.20;99.90;;;;;;4934134;29;20382;-78
2022/04/23 05:36:24;;;;;;;12.05;10.45;;;10.10;99.90;;;;;;4951756;28;20024;-77
2022/04/23 05:38:50;;;;;;;12.38;11.20;;;10.10;99.90;;;;;;4947412;29;20030;-79
2022/04/23 05:41:15;;;;;;;11.52;10.52;;;10.10;99.90;;;;;;4956118;28;20035;-78
2022/04/23 05:43:41;;;;;;;12.02;10.93;;;10.10;99.90;;;;;;4938716;28;20459;-78
2022/04/23 05:46:07;;;;;;;11.55;10.45;;;10.20;99.90;;;;;;4955547;29;20059;-78
2022/04/23 05:48:35;;;;;;;12.02;10.82;;;10.30;99.90;;;;;;4937848;28;20059;-79
2022/04/23 05:51:01;;;;;;;13.35;11.00;;;10.30;99.90;;;;;;4964080;28;20030;-78
2022/04/23 05:53:26;;;;;;;11.40;10.30;;;10.40;99.90;;;;;;4936744;29;20029;-78
2022/04/23 05:55:55;;;;;;;12.75;11.50;;;10.50;99.90;;;;;;4956519;28;20034;-80
2022/04/23 05:58:20;;;;;;;10.73;9.63;;;10.50;99.90;;;;;;4935155;29;20494;-79
2022/04/23 06:00:46;;;;;;;10.57;9.63;;;10.70;99.90;;;;;;4957752;28;20055;-79
2022/04/23 06:03:12;;;;;;;11.73;10.52;;;10.70;99.90;;;;;;4935642;28;20039;-77
2022/04/23 06:05:38;;;;;;;11.18;10.15;;;10.70;99.90;;;;;;4954384;28;20024;-79
2022/04/23 06:08:04;;;;;;;10.57;9.20;;;10.70;99.90;;;;;;4936690;28;20090;-77
2022/04/23 06:10:30;;;;;;;15.75;10.55;;;10.70;99.90;;;;;;4955581;28;20051;-78
2022/04/23 06:12:55;;;;;;;11.27;10.27;;;10.60;99.90;;;;;;4930486;29;20027;-77
2022/04/23 06:15:21;;;;;;;11.55;10.45;;;10.70;99.90;;;;;;4953763;28;20027;-78
2022/04/23 06:17:47;;;;;;;10.25;9.35;;;10.70;99.90;;;;;;4940933;28;20039;-79
2022/04/23 06:20:12;;;;;;;10.80;9.90;;;10.80;99.90;;;;;;4958692;28;20114;-80
2022/04/23 06:22:38;;;;;;;11.80;10.57;;;10.90;99.90;;;;;;4936541;28;20394;-80
2022/04/23 06:25:05;;;;;;;10.45;9.45;;;11.10;99.90;;;;;;4953369;28;20031;-78
2022/04/23 06:27:31;;;;;;;10.63;9.65;;;11.20;99.90;;;;;;4935157;28;20113;-79
2022/04/23 06:29:57;;;;;;;11.18;10.18;;;11.30;99.90;;;;;;4951276;28;20050;-79
2022/04/23 06:32:23;;;;;;;10.32;9.43;;;11.30;99.90;;;;;;4953042;29;20034;-79
2022/04/23 06:34:49;;;;;;;9.57;8.68;;;11.30;99.90;;;;;;4933701;29;20027;-79
2022/04/23 06:37:17;;;;;;;9.73;8.93;;;11.40;99.90;;;;;;4929460;29;20490;-77
2022/04/23 06:39:43;;;;;;;9.68;8.88;;;11.40;99.90;;;;;;4952386;28;20034;-78
2022/04/23 06:42:08;;;;;;;8.45;7.75;;;11.40;99.90;;;;;;4955524;28;20401;-79
2022/04/23 06:44:35;;;;;;;7.80;7.20;;;11.40;99.90;;;;;;4960035;28;20067;-78
2022/04/23 06:47:00;;;;;;;8.65;7.95;;;11.50;99.90;;;;;;4935949;29;20061;-79
2022/04/23 06:49:27;;;;;;;9.80;7.15;;;11.40;99.90;;;;;;4956186;28;20474;-77
2022/04/23 06:51:54;;;;;;;7.95;7.35;;;11.30;99.90;;;;;;4965167;28;20067;-78
2022/04/23 06:54:20;;;;;;;7.93;7.22;;;11.80;99.90;;;;;;4938999;28;20032;-79
2022/04/23 06:56:45;;;;;;;7.78;7.07;;;12.00;99.90;;;;;;4957195;28;20024;-80
2022/04/23 06:59:12;;;;;;;7.85;7.10;;;12.00;99.90;;;;;;4936372;28;20041;-78
2022/04/23 07:01:40;;;;;;;8.50;7.70;;;12.20;99.90;;;;;;4937573;29;20019;-79
2022/04/23 07:04:07;;;;;;;7.55;6.95;;;11.90;99.90;;;;;;4930444;28;20031;-79
2022/04/23 07:06:33;;;;;;;7.65;6.95;;;12.00;99.90;;;;;;4954373;28;20035;-78
2022/04/23 07:08:59;;;;;;;7.43;6.75;;;12.10;99.90;;;;;;4932761;28;20102;-78
2022/04/23 07:11:25;;;;;;;7.05;6.35;;;12.20;99.90;;;;;;4954061;28;20054;-80
2022/04/23 07:13:51;;;;;;;7.03;6.38;;;12.30;99.90;;;;;;4953019;28;20528;-77
2022/04/23 07:16:17;;;;;;;7.45;6.80;;;12.10;99.90;;;;;;4936004;29;20023;-78
2022/04/23 07:18:42;;;;;;;6.85;6.25;;;12.20;99.90;;;;;;4951749;28;20098;-79
2022/04/23 07:21:08;;;;;;;7.38;6.78;;;12.10;99.90;;;;;;4951560;28;20027;-77
2022/04/23 07:26:19;;;;;;;6.82;6.13;;;12.10;99.90;;;;;;4953409;28;20178;-79
2022/04/23 07:28:45;;;;;;;8.00;6.63;;;12.20;99.90;;;;;;4962480;28;20393;-80
2022/04/23 07:31:10;;;;;;;8.80;6.32;;;12.30;99.90;;;;;;4936419;29;20170;-80
2022/04/23 07:39:04;;;;;;;6.05;5.45;;;13.00;99.90;;;;;;4956203;28;20034;-80
2022/04/23 07:41:29;;;;;;;6.82;6.22;;;13.20;99.90;;;;;;4939309;29;20031;-79
2022/04/23 07:43:57;;;;;;;6.38;5.78;;;13.30;99.90;;;;;;4959245;28;20034;-80
2022/04/23 07:46:22;;;;;;;6.05;5.47;;;13.30;99.90;;;;;;4956865;28;20516;-80
2022/04/23 07:48:48;;;;;;;6.47;5.90;;;13.20;99.90;;;;;;4962406;28;20046;-82
2022/04/23 07:51:13;;;;;;;6.05;5.55;;;13.30;99.90;;;;;;4964298;28;20054;-80
2022/04/23 07:53:39;;;;;;;6.15;5.60;;;13.20;99.90;;;;;;4958537;29;20015;-80
2022/04/23 07:56:06;;;;;;;6.85;5.68;;;13.10;99.90;;;;;;4973274;28;20059;-81
2022/04/23 07:58:32;;;;;;;6.38;5.78;;;13.20;99.90;;;;;;4964202;28;20205;-82
2022/04/23 08:00:58;;;;;;;5.97;5.40;;;13.70;99.90;;;;;;4964467;29;20031;-81
2022/04/23 08:03:24;;;;;;;5.93;5.43;;;13.80;99.90;;;;;;4959304;28;20398;-80
2022/04/23 08:05:49;;;;;;;5.78;5.28;;;13.80;99.90;;;;;;4959029;28;20031;-81
2022/04/23 08:08:17;;;;;;;6.25;5.65;;;13.70;99.90;;;;;;4953285;28;20031;-80
2022/04/23 08:10:46;;;;;;;5.65;5.15;;;14.10;99.90;;;;;;4949471;28;20019;-83
2022/04/23 08:13:12;;;;;;;6.55;5.95;;;14.50;99.90;;;;;;4962049;28;20091;-79
2022/04/23 08:15:37;;;;;;;6.00;5.50;;;14.30;99.90;;;;;;4965663;28;20088;-79
2022/04/23 08:18:03;;;;;;;5.90;5.40;;;13.90;99.90;;;;;;4940990;28;20505;-80
2022/04/23 08:20:31;;;;;;;5.72;5.22;;;14.10;99.90;;;;;;4942955;28;20074;-80
2022/04/23 08:22:57;;;;;;;5.80;5.30;;;13.90;99.90;;;;;;4942177;28;20039;-81
2022/04/23 08:25:22;;;;;;;7.20;6.07;;;14.20;99.90;;;;;;4958156;28;20089;-82
2022/04/23 08:30:42;;;;;;;7.50;6.30;;;13.90;99.90;;;;;;4955614;29;20070;-80
2022/04/23 08:33:08;;;;;;;6.28;5.72;;;14.10;99.90;;;;;;4937115;29;20031;-81
2022/04/23 08:35:35;;;;;;;6.28;5.78;;;14.00;99.90;;;;;;4945526;29;20110;-82
2022/04/23 08:38:01;;;;;;;5.90;5.32;;;14.10;99.90;;;;;;4941991;29;20054;-82
2022/04/23 08:40:29;;;;;;;5.97;5.47;;;14.10;99.90;;;;;;4957874;28;20039;-80
2022/04/23 08:42:56;;;;;;;6.63;6.03;;;14.30;99.90;;;;;;4940164;29;20035;-79
2022/04/23 08:45:22;;;;;;;6.60;6.00;;;14.30;99.90;;;;;;4960374;28;20035;-79
2022/04/23 08:47:49;;;;;;;6.88;6.28;;;14.60;99.90;;;;;;4955507;28;20027;-81
2022/04/23 08:50:20;;;;;;;6.72;6.13;;;14.60;99.90;;;;;;4956713;28;20023;-80
2022/04/23 08:52:51;;;;;;;6.07;5.57;;;14.70;99.90;;;;;;4956952;28;20054;-79
2022/04/23 08:55:18;;;;;;;6.20;5.65;;;14.90;99.90;;;;;;4959767;28;20050;-80
2022/04/23 08:57:44;;;;;;;6.75;6.15;;;15.50;99.90;;;;;;4943000;29;20077;-80
2022/04/23 09:00:12;;;;;;;7.03;6.43;;;15.30;99.90;;;;;;4938890;28;20027;-80
2022/04/23 09:02:38;;;;;;;6.95;6.25;;;15.00;99.90;;;;;;4938558;28;20394;-81
2022/04/23 09:05:05;;;;;;;6.18;5.57;;;14.90;99.90;;;;;;4966899;28;20042;-83
2022/04/23 09:07:31;;;;;;;7.03;5.97;;;14.70;99.90;;;;;;4960936;28;20019;-80
2022/04/23 09:09:58;;;;;;;6.70;6.10;;;14.70;99.90;;;;;;4943781;29;20062;-80
2022/04/23 09:12:25;;;;;;;7.35;6.65;;;14.80;99.90;;;;;;4934116;29;20452;-79
2022/04/23 09:14:51;;;;;;;6.93;6.00;;;14.60;99.90;;;;;;4936954;29;20478;-79
2022/04/23 09:25:44;;;;;;;7.03;6.32;;;14.90;99.90;;;;;;4956044;28;20042;-79
2022/04/23 09:28:21;;;;;;;6.88;6.18;;;14.70;99.90;;;;;;4955806;29;20122;-80
2022/04/23 09:30:51;;;;;;;6.15;5.55;;;14.50;99.90;;;;;;4958920;28;20086;-80
2022/04/23 09:33:27;;;;;;;8.35;5.85;;;14.40;99.90;;;;;;4942288;29;20070;-79
2022/04/23 09:36:01;;;;;;;6.43;5.82;;;14.40;99.90;;;;;;4957735;28;20035;-80
2022/04/23 09:38:28;;;;;;;6.47;5.88;;;14.50;99.90;;;;;;4943090;29;20027;-80
2022/04/23 09:40:58;;;;;;;6.43;5.82;;;14.50;99.90;;;;;;4951255;28;20035;-77
2022/04/23 09:43:29;;;;;;;6.53;5.82;;;14.40;99.90;;;;;;4963561;28;20011;-76
2022/04/23 09:46:03;;;;;;;8.10;6.32;;;14.50;99.90;;;;;;4967670;28;20098;-75
2022/04/23 09:48:30;;;;;;;6.32;4.88;;;14.50;99.90;;;;;;4949417;29;20020;-76
2022/04/23 09:50:56;;;;;;;6.05;5.50;;;14.50;99.90;;;;;;4942621;29;20067;-76
2022/04/23 09:53:25;;;;;;;5.40;4.90;;;14.40;99.90;;;;;;4946613;29;20117;-75
2022/04/23 09:55:51;;;;;;;5.70;5.15;;;14.30;99.90;;;;;;4947296;29;20020;-76
2022/04/23 09:58:16;;;;;;;5.43;4.93;;;14.30;99.90;;;;;;4952738;29;20038;-77
2022/04/23 10:00:47;;;;;;;5.03;4.53;;;14.30;99.90;;;;;;4950726;29;20107;-76
2022/04/23 10:03:13;;;;;;;5.05;4.65;;;14.30;99.90;;;;;;4934840;28;20429;-77
2022/04/23 10:05:46;;;;;;;5.10;4.70;;;14.20;99.90;;;;;;4931583;29;20032;-76
2022/04/23 10:08:14;;;;;;;6.38;5.35;;;14.40;99.90;;;;;;4953453;29;20106;-76
2022/04/23 10:10:52;;;;;;;6.88;4.57;;;14.60;99.90;;;;;;4951299;29;20202;-77
2022/04/23 10:13:20;;;;;;;5.47;4.60;;;14.90;99.90;;;;;;4932493;29;20031;-76
2022/04/23 10:15:47;;;;;;;5.03;4.63;;;15.20;99.90;;;;;;4931854;29;20038;-76
2022/04/23 10:18:14;;;;;;;4.72;4.32;;;15.10;99.90;;;;;;4949388;29;20498;-76
2022/04/23 10:20:41;;;;;;;8.27;4.80;;;15.00;99.90;;;;;;4949099;29;20034;-77
2022/04/23 10:23:19;;;;;;;6.97;5.15;;;14.90;99.90;;;;;;4952454;29;20101;-77
2022/04/23 10:25:49;;;;;;;4.30;3.90;;;14.90;99.90;;;;;;4960661;28;20049;-76
2022/04/23 10:28:16;;;;;;;4.93;4.35;;;14.80;99.90;;;;;;4944018;29;20103;-75
2022/04/23 10:30:45;;;;;;;4.55;4.15;;;14.90;99.90;;;;;;4949901;29;20047;-76
2022/04/23 10:33:26;;;;;;;4.03;3.63;;;14.90;99.90;;;;;;4952643;29;20394;-77
2022/04/23 10:36:08;;;;;;;5.32;4.82;;;15.20;99.90;;;;;;4939331;29;20095;-77
2022/04/23 10:38:42;;;;;;;4.43;4.03;;;15.30;99.90;;;;;;4952220;29;20023;-76
2022/04/23 10:41:10;;;;;;;4.78;4.38;;;15.50;99.90;;;;;;4939083;29;20027;-77
2022/04/23 10:43:35;;;;;;;5.00;4.60;;;15.70;99.90;;;;;;4949317;28;20029;-76
2022/04/23 10:46:04;;;;;;;5.00;4.50;;;15.60;99.90;;;;;;4952621;29;20473;-75
2022/04/23 10:48:30;;;;;;;4.78;4.35;;;15.50;99.90;;;;;;4946107;29;20027;-76
2022/04/23 10:50:59;;;;;;;5.35;4.88;;;15.70;99.90;;;;;;4954809;29;20027;-76
2022/04/23 10:53:37;;;;;;;5.43;4.93;;;15.70;99.90;;;;;;4956171;29;20020;-75
2022/04/23 10:56:17;;;;;;;5.10;4.60;;;16.10;99.90;;;;;;4953526;29;20166;-75
2022/04/23 10:58:43;;;;;;;5.80;5.20;;;16.00;99.90;;;;;;4925297;29;20462;-76
2022/04/23 11:01:21;;;;;;;5.45;4.95;;;15.80;99.90;;;;;;4950871;29;20046;-77
2022/04/23 11:03:56;;;;;;;5.57;5.07;;;15.50;99.90;;;;;;4946508;29;20027;-77
2022/04/23 11:12:37;;;;;;;7.15;4.70;;;15.60;99.90;;;;;;4952541;29;20034;-76
2022/04/23 11:15:14;;;;;;;6.03;5.53;;;15.80;99.90;;;;;;4948558;29;20032;-76
2022/04/23 11:17:40;;;;;;;9.23;5.80;;;15.70;99.90;;;;;;4945050;29;20025;-76
2022/04/23 11:20:06;;;;;;;6.00;5.50;;;15.60;99.90;;;;;;4944077;29;20027;-76
2022/04/23 11:22:32;;;;;;;6.15;5.55;;;15.60;99.90;;;;;;4949833;29;20031;-77
2022/04/23 11:24:59;;;;;;;6.65;6.05;;;15.70;99.90;;;;;;4952892;29;20118;-77
2022/04/23 11:27:26;;;;;;;6.20;5.60;;;15.60;99.90;;;;;;4948125;29;20027;-76
2022/04/23 11:29:55;;;;;;;6.03;5.53;;;15.80;99.90;;;;;;4951848;29;20027;-77
2022/04/23 11:32:28;;;;;;;6.47;5.88;;;16.00;99.90;;;;;;4934279;29;20426;-76
2022/04/23 11:35:07;;;;;;;8.00;5.65;;;16.00;99.90;;;;;;4950320;29;20031;-77
2022/04/23 11:37:33;;;;;;;6.85;6.15;;;15.70;99.90;;;;;;4947423;29;20024;-76
2022/04/23 11:40:08;;;;;;;6.55;5.53;;;15.80;99.90;;;;;;4948343;28;20082;-76
2022/04/23 11:42:47;;;;;;;7.05;6.30;;;15.70;99.90;;;;;;4947245;28;20045;-73
2022/04/23 11:45:16;;;;;;;6.38;5.88;;;15.60;99.90;;;;;;4951703;28;20477;-74
2022/04/23 11:47:41;;;;;;;7.50;6.18;;;15.70;99.90;;;;;;4930424;29;20023;-75
2022/04/23 11:50:14;;;;;;;6.22;5.72;;;16.00;99.90;;;;;;4947168;28;20042;-76
2022/04/23 11:52:56;;;;;;;8.00;6.05;;;16.30;99.90;;;;;;4951336;28;20027;-78
2022/04/23 11:55:23;;;;;;;5.85;5.28;;;16.60;99.70;;;;;;4951064;28;20083;-80
2022/04/23 11:58:01;;;;;;;7.57;6.68;;;16.60;99.40;;;;;;4936240;29;20050;-80
2022/04/23 12:00:28;;;;;;;6.25;5.53;;;16.60;99.30;;;;;;4930616;29;20347;-80
2022/04/23 12:02:54;;;;;;;6.78;6.20;;;16.60;99.40;;;;;;4950523;29;20042;-80
2022/04/23 12:05:25;;;;;;;6.88;6.28;;;16.50;99.40;;;;;;4952628;29;20105;-79
2022/04/23 12:07:51;;;;;;;6.38;5.78;;;16.40;99.80;;;;;;4953398;29;20032;-79
2022/04/23 12:10:25;;;;;;;6.63;5.80;;;16.60;99.20;;;;;;4931446;29;20027;-79
2022/04/23 12:12:51;;;;;;;6.75;6.15;;;16.70;99.20;;;;;;4928902;29;20058;-79
2022/04/23 12:15:19;;;;;;;6.25;5.63;;;16.50;99.20;;;;;;4946338;29;20039;-80
2022/04/23 12:17:53;;;;;;;6.90;6.20;;;16.40;99.40;;;;;;4946723;29;20099;-79
2022/04/23 12:20:23;;;;;;;6.13;5.53;;;16.40;99.30;;;;;;4945919;29;20028;-81
2022/04/23 12:23:00;;;;;;;6.40;5.80;;;16.40;99.30;;;;;;4931023;29;20039;-78
2022/04/23 12:25:27;;;;;;;7.05;6.35;;;16.30;99.50;;;;;;4947614;29;20055;-76
2022/04/23 12:41:59;;;;;;;6.18;5.57;;;17.00;98.50;;;;;;4945843;29;20409;-79
2022/04/23 12:44:32;;;;;;;6.47;5.85;;;16.80;98.50;;;;;;4949783;28;20031;-79
2022/04/23 12:46:59;;;;;;;6.65;5.47;;;16.60;98.80;;;;;;4936859;29;20053;-79
2022/04/23 12:49:47;;;;;;;7.32;5.93;;;16.50;99.20;;;;;;4955797;28;20055;-78
2022/04/23 12:52:20;;;;;;;6.55;5.72;;;16.60;99.00;;;;;;4955940;28;20031;-79
2022/04/23 12:55:18;;;;;;;6.45;5.85;;;16.50;99.10;;;;;;4937981;29;20027;-78
2022/04/23 12:57:53;;;;;;;7.40;5.93;;;16.50;99.00;;;;;;4954121;29;20027;-78
2022/04/23 13:00:24;;;;;;;7.35;5.75;;;16.40;99.00;;;;;;4948008;29;20030;-78
2022/04/23 13:02:57;;;;;;;7.95;5.78;;;16.50;99.10;;;;;;4950923;29;20050;-78
2022/04/23 13:05:23;;;;;;;6.75;5.38;;;16.50;99.20;;;;;;4952262;29;20262;-78
2022/04/23 13:10:35;;;;;;;7.32;5.35;;;16.60;99.10;;;;;;4947832;29;20157;-78
2022/04/23 13:13:01;;;;;;;6.13;5.57;;;16.70;99.00;;;;;;4950791;29;20435;-77
2022/04/23 13:15:27;;;;;;;6.10;5.57;;;16.70;99.00;;;;;;4947930;29;20098;-77
2022/04/23 13:17:53;;;;;;;6.00;5.50;;;16.80;98.80;;;;;;4955961;29;20118;-78
2022/04/23 13:20:19;;;;;;;6.32;5.72;;;16.60;99.00;;;;;;4932232;29;20019;-77
2022/04/23 13:22:45;;;;;;;6.07;5.47;;;16.70;98.90;;;;;;4947749;29;20150;-78